createdAt,value
2018-08-08T00:01:44.725Z,26.05
2018-08-08T00:04:13.669Z,26.09
2018-08-08T00:06:42.141Z,26.19
2018-08-08T00:09:12.034Z,26.29
2018-08-08T00:11:40.822Z,26.29
2018-08-08T00:14:09.334Z,26.23
2018-08-08T00:16:37.832Z,26.31
2018-08-08T00:19:06.339Z,26.26
2018-08-08T00:21:34.815Z,26.15
2018-08-08T00:24:03.305Z,26.14
2018-08-08T00:26:31.757Z,26.22
2018-08-08T00:29:00.237Z,26.16
2018-08-08T00:31:28.750Z,26.19
2018-08-08T00:33:57.171Z,26.22
2018-08-08T00:36:25.718Z,26.21
2018-08-08T00:38:54.123Z,26.13
2018-08-08T00:41:22.633Z,26.07
2018-08-08T00:43:51.115Z,26.08
2018-08-08T00:46:19.610Z,26.02
2018-08-08T00:48:48.054Z,26.01
2018-08-08T00:51:16.569Z,26.09
2018-08-08T00:53:45.238Z,26.16
2018-08-08T00:56:14.098Z,26.25
2018-08-08T00:58:42.614Z,26.24
2018-08-08T01:01:11.165Z,26.17
2018-08-08T01:03:39.674Z,26.10
2018-08-08T01:06:08.282Z,26.04
2018-08-08T01:08:36.765Z,26.00
2018-08-08T01:11:05.333Z,25.95
2018-08-08T01:13:33.813Z,25.91
2018-08-08T01:16:02.341Z,25.88
2018-08-08T01:18:30.925Z,25.79
2018-08-08T01:20:59.453Z,25.82
2018-08-08T01:23:27.946Z,25.80
2018-08-08T01:25:56.568Z,25.75
2018-08-08T01:28:25.098Z,25.33
2018-08-08T01:30:53.653Z,23.78
2018-08-08T01:33:22.134Z,23.13
2018-08-08T01:35:50.721Z,22.56
2018-08-08T01:38:19.273Z,22.32
2018-08-08T01:40:47.758Z,22.09
2018-08-08T01:43:16.217Z,22.17
2018-08-08T01:45:44.840Z,22.30
2018-08-08T01:48:13.569Z,22.36
2018-08-08T01:50:42.053Z,22.58
2018-08-08T01:53:10.581Z,22.43
2018-08-08T01:55:38.985Z,22.37
2018-08-08T01:58:07.577Z,22.34
2018-08-08T02:00:36.045Z,22.16
2018-08-08T02:03:04.562Z,22.01
2018-08-08T02:05:33.021Z,21.97
2018-08-08T02:08:01.577Z,22.03
2018-08-08T02:10:30.549Z,22.30
2018-08-08T02:12:59.055Z,22.17
2018-08-08T02:15:27.537Z,22.41
2018-08-08T02:17:56.090Z,22.56
2018-08-08T02:20:24.557Z,22.67
2018-08-08T02:22:53.058Z,22.70
2018-08-08T02:25:21.529Z,22.54
2018-08-08T02:27:50.019Z,22.71
2018-08-08T02:30:21.506Z,22.56
2018-08-08T02:32:51.040Z,22.41
2018-08-08T02:35:20.171Z,22.36
2018-08-08T02:37:48.761Z,22.27
2018-08-08T02:40:20.479Z,22.23
2018-08-08T02:42:49.061Z,22.20
2018-08-08T02:45:19.729Z,22.25
2018-08-08T02:47:48.445Z,22.21
2018-08-08T02:50:18.473Z,22.20
2018-08-08T02:52:47.325Z,22.15
2018-08-08T02:55:15.863Z,22.19
2018-08-08T02:57:44.661Z,22.19
2018-08-08T03:00:16.717Z,22.21
2018-08-08T03:02:45.629Z,22.25
2018-08-08T03:05:14.785Z,22.31
2018-08-08T03:07:44.715Z,22.43
2018-08-08T03:10:15.231Z,22.43
2018-08-08T03:12:44.002Z,22.45
2018-08-08T03:15:15.217Z,22.46
2018-08-08T03:17:43.750Z,22.53
2018-08-08T03:20:13.907Z,22.51
2018-08-08T03:22:42.883Z,22.60
2018-08-08T03:25:13.186Z,22.64
2018-08-08T03:27:42.215Z,22.68
2018-08-08T03:30:20.802Z,22.66
2018-08-08T03:32:49.407Z,22.63
2018-08-08T03:35:18.373Z,22.56
2018-08-08T03:37:46.877Z,22.58
2018-08-08T03:40:16.505Z,22.65
2018-08-08T03:43:18.105Z,22.61
2018-08-08T03:45:47.139Z,22.53
2018-08-08T03:48:15.683Z,22.57
2018-08-08T03:50:44.150Z,22.55
2018-08-08T03:53:13.640Z,22.55
2018-08-08T03:55:42.137Z,22.47
2018-08-08T03:58:10.632Z,22.41
2018-08-08T04:00:39.080Z,22.34
2018-08-08T04:03:08.046Z,22.30
2018-08-08T04:05:36.523Z,22.29
2018-08-08T04:08:05.137Z,22.31
2018-08-08T04:10:34.382Z,22.21
2018-08-08T04:13:02.797Z,22.21
2018-08-08T04:15:31.349Z,22.18
2018-08-08T04:17:59.826Z,22.18
2018-08-08T04:20:28.358Z,22.12
2018-08-08T04:22:56.813Z,22.03
2018-08-08T04:25:25.349Z,21.98
2018-08-08T04:27:54.113Z,22.00
2018-08-08T04:30:22.653Z,22.02
2018-08-08T04:32:51.066Z,22.02
2018-08-08T04:35:19.553Z,22.07
2018-08-08T04:37:48.100Z,22.08
2018-08-08T04:40:18.547Z,22.09
2018-08-08T04:42:48.036Z,22.13
2018-08-08T04:45:17.169Z,22.17
2018-08-08T04:47:46.230Z,22.18
2018-08-08T04:50:15.165Z,22.19
2018-08-08T04:52:44.277Z,22.20
2018-08-08T04:55:14.405Z,22.24
2018-08-08T04:57:42.893Z,22.30
2018-08-08T05:00:14.544Z,22.34
2018-08-08T05:02:43.158Z,22.37
2018-08-08T05:05:11.748Z,22.45
2018-08-08T05:07:40.416Z,22.51
2018-08-08T05:10:10.673Z,22.54
2018-08-08T05:12:40.583Z,22.58
2018-08-08T05:15:14.679Z,22.64
2018-08-08T05:17:43.568Z,22.69
2018-08-08T05:20:13.486Z,22.74
2018-08-08T05:22:42.173Z,22.79
2018-08-08T05:25:10.753Z,22.82
2018-08-08T05:27:39.247Z,22.92
2018-08-08T05:30:15.102Z,22.99
2018-08-08T05:32:43.711Z,23.07
2018-08-08T05:35:15.359Z,23.15
2018-08-08T05:37:43.968Z,23.20
2018-08-08T05:40:20.073Z,23.24
2018-08-08T05:42:49.466Z,23.29
2018-08-08T05:45:18.400Z,23.33
2018-08-08T05:47:48.209Z,23.40
2018-08-08T05:50:17.069Z,23.55
2018-08-08T05:52:45.732Z,23.77
2018-08-08T05:55:15.690Z,23.90
2018-08-08T05:57:45.541Z,24.02
2018-08-08T06:00:17.117Z,24.12
2018-08-08T06:02:46.436Z,24.17
2018-08-08T06:05:15.865Z,24.20
2018-08-08T06:07:45.649Z,24.23
2018-08-08T06:10:14.465Z,24.16
2018-08-08T06:12:44.192Z,24.17
2018-08-08T06:15:14.293Z,24.15
2018-08-08T06:17:43.357Z,24.25
2018-08-08T06:20:15.564Z,24.32
2018-08-08T06:22:45.497Z,24.39
2018-08-08T06:25:14.610Z,24.49
2018-08-08T06:27:43.903Z,24.44
2018-08-08T06:30:20.225Z,24.40
2018-08-08T06:32:49.845Z,24.42
2018-08-08T06:35:20.485Z,24.39
2018-08-08T06:37:50.444Z,24.31
2018-08-08T06:40:18.965Z,24.38
2018-08-08T06:42:47.712Z,24.49
2018-08-08T06:45:17.677Z,24.57
2018-08-08T06:47:46.205Z,24.60
2018-08-08T06:50:15.661Z,24.88
2018-08-08T06:52:44.234Z,25.18
2018-08-08T06:55:14.446Z,25.14
2018-08-08T06:57:42.982Z,25.14
2018-08-08T07:00:14.424Z,24.93
2018-08-08T07:02:43.519Z,24.67
2018-08-08T07:05:12.247Z,24.63
2018-08-08T07:07:40.991Z,24.56
2018-08-08T07:10:10.121Z,24.52
2018-08-08T07:12:38.698Z,24.63
2018-08-08T07:15:09.476Z,25.02
2018-08-08T07:17:38.195Z,25.50
2018-08-08T07:20:07.581Z,25.66
2018-08-08T07:22:36.125Z,25.74
2018-08-08T07:25:05.325Z,25.57
2018-08-08T07:27:33.975Z,25.46
2018-08-08T07:30:02.493Z,25.47
2018-08-08T07:32:32.011Z,25.78
2018-08-08T07:35:00.489Z,25.91
2018-08-08T07:37:29.479Z,25.89
2018-08-08T07:39:59.309Z,25.81
2018-08-08T07:42:27.943Z,25.85
2018-08-08T07:44:56.505Z,25.93
2018-08-08T07:47:25.068Z,26.17
2018-08-08T07:49:53.557Z,26.16
2018-08-08T07:52:22.129Z,26.18
2018-08-08T07:54:50.661Z,26.16
2018-08-08T07:57:19.178Z,26.03
2018-08-08T07:59:47.646Z,26.04
2018-08-08T08:02:16.197Z,26.16
2018-08-08T08:04:44.711Z,26.19
2018-08-08T08:07:13.429Z,26.42
2018-08-08T08:09:41.886Z,26.64
2018-08-08T08:12:10.331Z,26.81
2018-08-08T08:14:38.869Z,27.01
2018-08-08T08:17:07.326Z,27.15
2018-08-08T08:19:35.825Z,27.48
2018-08-08T08:22:04.552Z,27.73
2018-08-08T08:24:33.079Z,27.78
2018-08-08T08:27:01.550Z,27.68
2018-08-08T08:29:30.039Z,27.61
2018-08-08T08:31:58.518Z,28.13
2018-08-08T08:34:27.014Z,28.60
2018-08-08T08:36:55.444Z,28.73
2018-08-08T08:39:23.961Z,28.47
2018-08-08T08:41:52.445Z,28.16
2018-08-08T08:44:20.932Z,28.14
2018-08-08T08:46:49.421Z,28.33
2018-08-08T08:49:17.977Z,28.23
2018-08-08T08:51:46.449Z,28.56
2018-08-08T08:54:15.315Z,28.82
2018-08-08T08:56:43.870Z,28.88
2018-08-08T08:59:12.677Z,29.05
2018-08-08T09:01:41.187Z,29.05
2018-08-08T09:04:09.694Z,29.24
2018-08-08T09:06:38.149Z,29.36
2018-08-08T09:09:10.209Z,29.43
2018-08-08T09:11:38.781Z,29.68
2018-08-08T09:14:07.315Z,29.86
2018-08-08T09:16:35.825Z,29.80
2018-08-08T09:19:04.277Z,29.97
2018-08-08T09:21:32.725Z,30.17
2018-08-08T09:24:01.233Z,30.48
2018-08-08T09:26:29.747Z,30.69
2018-08-08T09:28:58.322Z,30.89
2018-08-08T09:31:26.760Z,31.03
2018-08-08T09:33:55.264Z,31.02
2018-08-08T09:36:23.728Z,31.06
2018-08-08T09:38:52.260Z,31.20
2018-08-08T09:41:20.692Z,31.41
2018-08-08T09:43:49.181Z,30.97
2018-08-08T09:46:17.688Z,30.83
2018-08-08T09:48:46.135Z,31.17
2018-08-08T09:51:15.213Z,31.85
2018-08-08T09:53:43.949Z,32.80
2018-08-08T09:56:12.628Z,33.77
2018-08-08T09:58:41.069Z,33.88
2018-08-08T10:01:14.721Z,34.21
2018-08-08T10:03:48.342Z,34.13
2018-08-08T10:06:16.810Z,33.97
2018-08-08T10:08:45.241Z,34.03
2018-08-08T10:11:14.269Z,34.68
2018-08-08T10:13:42.905Z,34.89
2018-08-08T10:16:11.671Z,35.44
2018-08-08T10:18:40.086Z,36.10
2018-08-08T10:21:08.843Z,36.83
2018-08-08T10:23:37.397Z,37.32
2018-08-08T10:26:06.049Z,37.43
2018-08-08T10:28:34.537Z,37.91
2018-08-08T10:31:03.045Z,37.38
2018-08-08T10:33:31.733Z,37.19
2018-08-08T10:36:00.254Z,36.46
2018-08-08T10:38:28.785Z,36.25
2018-08-08T10:40:57.280Z,35.25
2018-08-08T10:43:25.765Z,33.94
2018-08-08T10:45:54.235Z,33.02
2018-08-08T10:48:22.877Z,32.39
2018-08-08T10:50:52.399Z,32.19
2018-08-08T10:53:24.550Z,32.13
2018-08-08T10:55:53.090Z,32.51
2018-08-08T10:58:21.518Z,33.13
2018-08-08T11:00:50.103Z,33.48
2018-08-08T11:03:18.566Z,33.75
2018-08-08T11:05:47.036Z,33.81
2018-08-08T11:08:15.733Z,34.15
2018-08-08T11:10:44.185Z,34.41
2018-08-08T11:13:12.939Z,34.48
2018-08-08T11:15:41.509Z,34.83
2018-08-08T11:18:09.994Z,34.41
2018-08-08T11:20:38.477Z,34.05
2018-08-08T11:23:07.257Z,33.65
2018-08-08T11:25:35.870Z,33.37
2018-08-08T11:28:04.333Z,32.89
2018-08-08T11:30:33.108Z,32.62
2018-08-08T11:33:01.901Z,33.16
2018-08-08T11:35:30.455Z,34.18
2018-08-08T11:37:58.917Z,35.32
2018-08-08T11:40:27.411Z,37.19
2018-08-08T11:42:55.881Z,37.65
2018-08-08T11:45:24.418Z,36.45
2018-08-08T11:47:52.980Z,35.24
2018-08-08T11:50:21.663Z,34.17
2018-08-08T11:52:50.133Z,33.44
2018-08-08T11:55:18.549Z,33.16
2018-08-08T11:57:47.085Z,33.43
2018-08-08T12:00:16.343Z,33.63
2018-08-08T12:02:44.863Z,33.79
2018-08-08T12:05:13.686Z,33.63
2018-08-08T12:07:42.353Z,33.57
2018-08-08T12:10:10.783Z,33.99
2018-08-08T12:12:39.281Z,34.09
2018-08-08T12:15:09.412Z,34.13
2018-08-08T12:17:37.894Z,34.14
2018-08-08T12:20:06.361Z,34.38
2018-08-08T12:22:34.851Z,35.07
2018-08-08T12:25:03.362Z,36.15
2018-08-08T12:27:31.790Z,37.71
2018-08-08T12:30:00.324Z,37.29
2018-08-08T12:32:28.775Z,37.25
2018-08-08T12:34:57.237Z,37.64
2018-08-08T12:37:25.766Z,39.50
2018-08-08T12:39:54.202Z,41.72
2018-08-08T12:42:22.713Z,43.57
2018-08-08T12:44:51.166Z,43.19
2018-08-08T12:47:19.927Z,41.88
2018-08-08T12:49:48.406Z,42.22
2018-08-08T12:52:16.836Z,43.55
2018-08-08T12:54:45.322Z,45.41
2018-08-08T12:57:14.493Z,46.36
2018-08-08T12:59:42.909Z,45.84
2018-08-08T13:02:11.570Z,46.46
2018-08-08T13:04:39.926Z,46.17
2018-08-08T13:07:08.414Z,45.59
2018-08-08T13:09:36.902Z,46.20
2018-08-08T13:12:05.444Z,46.97
2018-08-08T13:14:34.010Z,45.90
2018-08-08T13:17:02.618Z,46.58
2018-08-08T13:19:31.163Z,47.26
2018-08-08T13:21:59.618Z,45.85
2018-08-08T13:24:28.121Z,46.14
2018-08-08T13:26:56.573Z,46.06
2018-08-08T13:29:25.074Z,47.31
2018-08-08T13:31:53.513Z,47.54
2018-08-08T13:34:22.279Z,46.49
2018-08-08T13:36:50.678Z,47.37
2018-08-08T13:39:19.330Z,46.55
2018-08-08T13:41:47.793Z,46.97
2018-08-08T13:44:16.253Z,46.87
2018-08-08T13:46:44.734Z,47.63
2018-08-08T13:49:15.210Z,47.70
2018-08-08T13:51:43.617Z,48.85
2018-08-08T13:54:12.169Z,49.52
2018-08-08T13:56:40.585Z,49.85
2018-08-08T13:59:09.099Z,49.86
2018-08-08T14:01:37.629Z,49.87
2018-08-08T14:04:06.346Z,49.43
2018-08-08T14:06:34.810Z,47.03
2018-08-08T14:09:03.449Z,46.35
2018-08-08T14:11:31.900Z,44.76
2018-08-08T14:14:00.393Z,46.49
2018-08-08T14:16:28.849Z,46.65
2018-08-08T14:18:57.363Z,43.95
2018-08-08T14:21:25.893Z,42.09
2018-08-08T14:23:54.346Z,44.25
2018-08-08T14:26:22.813Z,46.37
2018-08-08T14:28:51.282Z,45.73
2018-08-08T14:31:19.725Z,44.20
2018-08-08T14:33:48.166Z,42.01
2018-08-08T14:36:16.590Z,41.21
2018-08-08T14:38:45.011Z,41.06
2018-08-08T14:41:13.795Z,41.06
2018-08-08T14:43:42.233Z,41.94
2018-08-08T14:46:10.738Z,43.24
2018-08-08T14:48:39.395Z,46.30
2018-08-08T14:51:07.917Z,47.19
2018-08-08T14:53:36.408Z,46.39
2018-08-08T14:56:04.921Z,45.85
2018-08-08T14:58:33.358Z,45.35
2018-08-08T15:01:01.880Z,46.44
2018-08-08T15:03:30.305Z,46.06
2018-08-08T15:05:58.806Z,46.49
2018-08-08T15:08:27.256Z,46.95
2018-08-08T15:10:55.769Z,48.23
2018-08-08T15:13:24.242Z,47.58
2018-08-08T15:15:52.733Z,46.27
2018-08-08T15:18:21.111Z,46.36
2018-08-08T15:20:49.591Z,46.67
2018-08-08T15:23:18.070Z,46.49
2018-08-08T15:25:46.613Z,45.59
2018-08-08T15:28:15.725Z,44.85
2018-08-08T15:30:44.310Z,43.70
2018-08-08T15:33:13.090Z,40.41
2018-08-08T15:35:41.677Z,37.80
2018-08-08T15:38:10.261Z,36.68
2018-08-08T15:40:38.692Z,36.32
2018-08-08T15:43:07.345Z,35.69
2018-08-08T15:45:35.786Z,35.63
2018-08-08T15:48:04.284Z,37.34
2018-08-08T15:50:32.740Z,38.93
2018-08-08T15:53:01.270Z,41.55
2018-08-08T15:55:29.927Z,43.09
2018-08-08T15:57:58.373Z,43.12
2018-08-08T16:00:26.942Z,41.38
2018-08-08T16:02:55.377Z,42.49
2018-08-08T16:05:23.824Z,41.71
2018-08-08T16:07:52.265Z,40.59
2018-08-08T16:10:20.813Z,40.12
2018-08-08T16:12:49.265Z,37.04
2018-08-08T16:15:17.865Z,34.03
2018-08-08T16:17:46.306Z,32.14
2018-08-08T16:20:15.347Z,31.05
2018-08-08T16:22:43.793Z,30.54
2018-08-08T16:25:13.167Z,30.48
2018-08-08T16:27:41.679Z,29.73
2018-08-08T16:30:10.204Z,28.76
2018-08-08T16:32:38.661Z,27.26
2018-08-08T16:35:07.486Z,27.80
2018-08-08T16:37:36.667Z,29.12
2018-08-08T16:40:06.328Z,28.13
2018-08-08T16:42:34.825Z,27.95
2018-08-08T16:45:03.674Z,27.90
2018-08-08T16:47:32.494Z,27.05
2018-08-08T16:50:00.985Z,27.29
2018-08-08T16:52:29.481Z,26.72
2018-08-08T16:54:57.974Z,28.16
2018-08-08T16:57:26.438Z,27.78
2018-08-08T16:59:54.925Z,27.46
2018-08-08T17:02:23.438Z,28.86
2018-08-08T17:04:52.034Z,30.62
2018-08-08T17:07:20.461Z,32.40
2018-08-08T17:09:48.918Z,33.44
2018-08-08T17:12:17.442Z,33.27
2018-08-08T17:14:45.951Z,32.66
2018-08-08T17:17:14.924Z,30.18
2018-08-08T17:19:43.370Z,28.63
2018-08-08T17:22:11.865Z,27.03
2018-08-08T17:24:40.342Z,26.16
2018-08-08T17:27:08.997Z,25.79
2018-08-08T17:29:37.485Z,25.64
2018-08-08T17:32:06.627Z,25.96
2018-08-08T17:34:35.128Z,25.89
2018-08-08T17:37:03.567Z,26.46
2018-08-08T17:39:32.066Z,27.38
2018-08-08T17:42:00.529Z,27.02
2018-08-08T17:44:29.001Z,26.89
2018-08-08T17:46:57.685Z,27.08
2018-08-08T17:49:26.161Z,27.88
2018-08-08T17:51:54.693Z,28.98
2018-08-08T17:54:23.133Z,28.05
2018-08-08T17:56:51.701Z,27.35
2018-08-08T17:59:20.260Z,26.49
2018-08-08T18:01:48.725Z,26.12
2018-08-08T18:04:17.541Z,25.58
2018-08-08T18:06:46.077Z,25.24
2018-08-08T18:09:15.083Z,25.02
2018-08-08T18:11:43.575Z,24.59
2018-08-08T18:14:11.993Z,24.43
2018-08-08T18:16:40.555Z,24.19
2018-08-08T18:19:08.975Z,24.03
2018-08-08T18:21:37.513Z,23.94
2018-08-08T18:24:05.981Z,23.87
2018-08-08T18:26:34.387Z,23.74
2018-08-08T18:29:02.917Z,23.70
2018-08-08T18:31:31.364Z,23.66
2018-08-08T18:33:59.942Z,23.61
2018-08-08T18:36:28.490Z,23.64
2018-08-08T18:38:56.941Z,23.70
2018-08-08T18:41:25.439Z,23.66
2018-08-08T18:43:53.925Z,23.65
2018-08-08T18:46:22.373Z,23.58
2018-08-08T18:48:50.962Z,23.48
2018-08-08T18:51:19.366Z,23.48
2018-08-08T18:53:48.018Z,23.36
2018-08-08T18:56:16.558Z,23.28
2018-08-08T18:58:44.990Z,23.21
2018-08-08T19:01:13.838Z,23.05
2018-08-08T19:03:42.278Z,22.89
2018-08-08T19:06:10.754Z,22.80
2018-08-08T19:08:39.265Z,22.75
2018-08-08T19:11:07.761Z,22.66
2018-08-08T19:13:36.345Z,22.64
2018-08-08T19:16:04.959Z,22.58
2018-08-08T19:18:33.473Z,22.55
2018-08-08T19:21:02.065Z,22.58
2018-08-08T19:23:30.575Z,22.63
2018-08-08T19:25:58.977Z,22.58
2018-08-08T19:28:27.512Z,22.53
2018-08-08T19:30:55.949Z,22.49
2018-08-08T19:33:24.485Z,22.51
2018-08-08T19:35:52.883Z,22.55
2018-08-08T19:38:21.292Z,22.54
2018-08-08T19:40:49.781Z,22.40
2018-08-08T19:43:18.301Z,22.33
2018-08-08T19:48:15.112Z,22.29
2018-08-08T19:50:51.889Z,22.25
2018-08-08T19:53:20.985Z,22.22
2018-08-08T19:55:49.681Z,22.22
2018-08-08T19:58:18.185Z,22.11
2018-08-08T20:00:47.875Z,22.04
2018-08-08T20:03:16.737Z,21.99
2018-08-08T20:05:45.557Z,21.87
2018-08-08T20:08:20.101Z,21.81
2018-08-08T20:10:48.591Z,21.77
2018-08-08T20:13:17.225Z,21.68
2018-08-08T20:15:45.762Z,21.62
2018-08-08T20:18:14.529Z,21.53
2018-08-08T20:20:43.038Z,21.44
2018-08-08T20:23:11.517Z,21.41
2018-08-08T20:25:40.145Z,21.43
2018-08-08T20:28:08.809Z,21.39
2018-08-08T20:30:37.768Z,21.30
2018-08-08T20:33:06.483Z,21.39
2018-08-08T20:35:36.063Z,21.41
2018-08-08T20:38:04.586Z,21.40
2018-08-08T20:40:33.799Z,21.45
2018-08-08T20:43:02.381Z,21.40
2018-08-08T20:45:31.090Z,21.40
2018-08-08T20:47:59.610Z,21.49
2018-08-08T20:50:28.045Z,21.58
2018-08-08T20:52:58.154Z,21.67
2018-08-08T20:55:26.682Z,21.57
2018-08-08T20:57:55.125Z,21.66
2018-08-08T21:00:24.240Z,21.52
2018-08-08T21:02:52.881Z,21.41
2018-08-08T21:05:21.943Z,21.29
2018-08-08T21:07:50.392Z,21.36
2018-08-08T21:10:18.994Z,21.29
2018-08-08T21:12:47.443Z,21.27
2018-08-08T21:15:16.885Z,21.22
2018-08-08T21:17:45.386Z,21.44
2018-08-08T21:20:14.214Z,21.38
2018-08-08T21:22:42.771Z,21.29
2018-08-08T21:25:11.241Z,21.25
2018-08-08T21:27:40.359Z,21.21
2018-08-08T21:30:08.896Z,21.15
2018-08-08T21:32:37.474Z,21.08
2018-08-08T21:35:06.010Z,21.16
2018-08-08T21:37:34.425Z,21.09
2018-08-08T21:40:02.898Z,21.01
2018-08-08T21:42:31.634Z,20.87
2018-08-08T21:45:00.107Z,20.77
2018-08-08T21:47:28.558Z,20.75
2018-08-08T21:49:57.061Z,20.82
2018-08-08T21:52:25.505Z,20.85
2018-08-08T21:55:06.189Z,20.84
2018-08-08T21:57:45.961Z,20.90
2018-08-08T22:00:25.794Z,21.04
2018-08-08T22:03:05.442Z,21.12
2018-08-08T22:05:45.211Z,21.14
2018-08-08T22:08:24.981Z,21.08
2018-08-08T22:11:09.879Z,21.05
2018-08-08T22:13:49.663Z,21.16
2018-08-08T22:16:29.493Z,21.29
2018-08-08T22:19:10.325Z,21.30
2018-08-08T22:21:38.861Z,21.23
2018-08-08T22:24:07.289Z,21.24
2018-08-08T22:26:35.796Z,21.20
2018-08-08T22:29:04.314Z,21.16
2018-08-08T22:31:32.762Z,21.26
2018-08-08T22:34:01.258Z,21.33
2018-08-08T22:36:29.745Z,21.26
2018-08-08T22:38:58.202Z,21.13
2018-08-08T22:41:26.986Z,21.06
2018-08-08T22:43:55.453Z,21.04
2018-08-08T22:46:23.982Z,21.01
2018-08-08T22:48:52.619Z,20.97
2018-08-08T22:51:21.165Z,20.94
2018-08-08T22:53:49.630Z,20.98
2018-08-08T22:56:18.101Z,21.06
2018-08-08T22:58:46.605Z,21.11
2018-08-08T23:01:16.637Z,21.02
2018-08-08T23:03:45.053Z,20.92
2018-08-08T23:06:13.888Z,20.90
2018-08-08T23:08:42.337Z,20.87
2018-08-08T23:11:13.717Z,20.88
2018-08-08T23:13:43.273Z,20.93
2018-08-08T23:16:11.817Z,20.92
2018-08-08T23:18:40.365Z,20.83
2018-08-08T23:21:09.121Z,20.72
2018-08-08T23:23:37.685Z,20.59
2018-08-08T23:26:06.121Z,20.51
2018-08-08T23:28:34.593Z,20.45
2018-08-08T23:31:03.113Z,20.42
2018-08-08T23:33:31.602Z,20.35
2018-08-08T23:36:00.134Z,20.29
2018-08-08T23:38:28.556Z,20.27
2018-08-08T23:40:57.068Z,20.30
2018-08-08T23:43:25.497Z,20.27
2018-08-08T23:45:53.990Z,20.25
2018-08-08T23:48:22.477Z,20.21
2018-08-08T23:50:50.941Z,20.16
2018-08-08T23:53:19.421Z,20.11
2018-08-08T23:55:47.878Z,20.11
2018-08-08T23:58:16.410Z,20.03
